createdAt,value
2022-09-23T00:00:05.376Z,99031.72
2022-09-23T00:02:07.847Z,99036.06
2022-09-23T00:04:10.021Z,99021.34
2022-09-23T00:06:18.231Z,99012.69
2022-09-23T00:08:20.511Z,99036.03
2022-09-23T00:10:33.805Z,99016.00
2022-09-23T00:12:36.520Z,99032.44
2022-09-23T00:14:39.424Z,99023.78
2022-09-23T00:16:41.778Z,99025.47
2022-09-23T00:18:44.074Z,99022.75
2022-09-23T00:20:56.099Z,99028.06
2022-09-23T00:23:01.552Z,99021.97
2022-09-23T00:25:18.798Z,99024.41
2022-09-23T00:27:54.636Z,99020.22
2022-09-23T00:29:57.315Z,99022.75
2022-09-23T00:32:08.376Z,99016.78
2022-09-23T00:34:13.555Z,99009.78
2022-09-23T00:36:52.659Z,99028.78
2022-09-23T00:39:26.236Z,99021.94
2022-09-23T00:41:39.852Z,99020.13
2022-09-23T00:43:49.168Z,99032.28
2022-09-23T00:45:51.536Z,99033.97
2022-09-23T00:47:54.912Z,99029.59
2022-09-23T00:50:17.715Z,99027.03
2022-09-23T00:52:23.848Z,99017.34
2022-09-23T00:54:27.907Z,99010.44
2022-09-23T00:56:31.994Z,99021.66
2022-09-23T00:58:39.386Z,99025.19
2022-09-23T01:00:42.820Z,99033.78
2022-09-23T01:02:44.936Z,99026.00
2022-09-23T01:04:49.703Z,99018.16
2022-09-23T01:06:51.896Z,99019.94
2022-09-23T01:08:54.070Z,99018.16
2022-09-23T01:11:20.843Z,99033.84
2022-09-23T01:13:57.965Z,99030.28
2022-09-23T01:16:15.084Z,99008.69
2022-09-23T01:18:43.646Z,99025.09
2022-09-23T01:21:21.526Z,99010.31
2022-09-23T01:24:15.771Z,99031.28
2022-09-23T01:26:36.041Z,99026.91
2022-09-23T01:29:15.299Z,99022.72
2022-09-23T01:31:37.560Z,99026.25
2022-09-23T01:33:45.476Z,99037.44
2022-09-23T01:36:19.284Z,99030.56
2022-09-23T01:38:47.043Z,99028.84
2022-09-23T01:40:55.028Z,99041.75
2022-09-23T01:43:06.209Z,99034.00
2022-09-23T01:45:32.177Z,99034.81
2022-09-23T01:47:42.750Z,99039.22
2022-09-23T01:50:29.627Z,99041.03
2022-09-23T01:52:42.010Z,99032.50
2022-09-23T01:54:55.647Z,99018.59
2022-09-23T01:57:09.975Z,99039.38
2022-09-23T01:59:18.542Z,99035.03
2022-09-23T02:01:30.198Z,99029.94
2022-09-23T02:03:59.883Z,99030.84
2022-09-23T02:06:20.363Z,99035.19
2022-09-23T02:08:32.057Z,99040.53
2022-09-23T02:10:54.115Z,99024.81
2022-09-23T02:13:10.113Z,99040.44
2022-09-23T02:15:17.832Z,99045.75
2022-09-23T02:17:31.552Z,99046.59
2022-09-23T02:19:46.360Z,99042.34
2022-09-23T02:21:56.133Z,99034.50
2022-09-23T02:24:06.416Z,99040.56
2022-09-23T02:26:33.882Z,99047.59
2022-09-23T02:28:51.832Z,99046.63
2022-09-23T02:31:07.827Z,99038.03
2022-09-23T02:33:35.174Z,99023.22
2022-09-23T02:35:51.801Z,99040.41
2022-09-23T02:37:53.827Z,99042.94
2022-09-23T02:40:07.866Z,99050.75
2022-09-23T02:42:15.597Z,99045.66
2022-09-23T02:44:20.461Z,99037.00
2022-09-23T02:46:23.481Z,99030.06
2022-09-23T02:48:48.468Z,99042.06
2022-09-23T02:50:50.803Z,99026.53
2022-09-23T02:52:53.273Z,99047.38
2022-09-23T02:54:59.009Z,99043.13
2022-09-23T02:57:06.872Z,99043.94
2022-09-23T02:59:09.979Z,99047.38
2022-09-23T03:01:22.868Z,99052.59
2022-09-23T03:03:37.220Z,99053.50
2022-09-23T03:05:50.615Z,99037.91
2022-09-23T03:08:05.130Z,99056.06
2022-09-23T03:10:16.694Z,99056.84
2022-09-23T03:12:21.637Z,99044.59
2022-09-23T03:14:40.417Z,99052.56
2022-09-23T03:16:50.962Z,99043.13
2022-09-23T03:19:22.179Z,99049.88
2022-09-23T03:21:53.221Z,99045.56
2022-09-23T03:23:59.830Z,99050.09
2022-09-23T03:26:08.669Z,99046.53
2022-09-23T03:28:12.090Z,99036.06
2022-09-23T03:30:14.515Z,99047.22
2022-09-23T03:32:19.867Z,99047.16
2022-09-23T03:34:27.518Z,99047.09
2022-09-23T03:36:53.988Z,99041.88
2022-09-23T03:39:04.746Z,99036.63
2022-09-23T03:41:11.024Z,99038.38
2022-09-23T03:43:14.316Z,99041.88
2022-09-23T03:45:21.174Z,99031.41
2022-09-23T03:47:26.361Z,99040.03
2022-09-23T03:49:33.554Z,99050.31
2022-09-23T03:51:35.893Z,99042.53
2022-09-23T03:53:39.738Z,99040.75
2022-09-23T03:55:41.773Z,99026.84
2022-09-23T03:57:45.296Z,99027.63
2022-09-23T03:59:47.436Z,99019.75
2022-09-23T04:01:50.400Z,99011.06
2022-09-23T04:03:53.847Z,99026.56
2022-09-23T04:05:56.091Z,99020.53
2022-09-23T04:07:58.254Z,99011.78
2022-09-23T04:10:00.503Z,99013.69
2022-09-23T04:12:03.854Z,99023.38
2022-09-23T04:14:05.987Z,99025.09
2022-09-23T04:16:08.175Z,99009.47
2022-09-23T04:18:10.461Z,99014.59
2022-09-23T04:20:12.984Z,99017.16
2022-09-23T04:22:15.108Z,99009.38
2022-09-23T04:24:17.588Z,98987.66
2022-09-23T04:26:19.686Z,98991.25
2022-09-23T04:28:22.745Z,98992.88
2022-09-23T04:30:24.918Z,98981.59
2022-09-23T04:32:27.089Z,99002.53
2022-09-23T04:34:29.240Z,99001.53
2022-09-23T04:36:31.506Z,98976.50
2022-09-23T04:38:33.725Z,99007.53
2022-09-23T04:40:36.323Z,98998.88
2022-09-23T04:42:38.676Z,98997.03
2022-09-23T04:44:40.845Z,99010.03
2022-09-23T04:46:49.738Z,99015.97
2022-09-23T04:48:52.189Z,99009.91
2022-09-23T04:50:54.282Z,99002.06
2022-09-23T04:52:56.539Z,99004.56
2022-09-23T04:54:58.592Z,99009.78
2022-09-23T04:57:00.970Z,98993.31
2022-09-23T04:59:03.066Z,99008.88
2022-09-23T05:01:27.160Z,99012.09
2022-09-23T05:03:30.299Z,99019.78
2022-09-23T05:05:32.368Z,99004.91
2022-09-23T05:07:35.579Z,99018.44
2022-09-23T05:09:38.206Z,99011.47
2022-09-23T05:11:40.527Z,99009.75
2022-09-23T05:13:42.488Z,99014.22
2022-09-23T05:15:44.535Z,99006.22
2022-09-23T05:17:46.741Z,99000.06
2022-09-23T05:19:48.873Z,99009.72
2022-09-23T05:21:51.622Z,99005.38
2022-09-23T05:23:56.840Z,99020.72
2022-09-23T05:26:00.713Z,99010.16
2022-09-23T05:28:02.942Z,99014.47
2022-09-23T05:30:05.531Z,99010.84
2022-09-23T05:32:08.121Z,99003.81
2022-09-23T05:34:10.148Z,99008.69
2022-09-23T05:36:13.456Z,99003.19
2022-09-23T05:38:16.981Z,99003.44
2022-09-23T05:40:19.187Z,99010.13
2022-09-23T05:42:21.309Z,99008.75
2022-09-23T05:44:23.477Z,99005.19
2022-09-23T05:46:28.387Z,99000.41
2022-09-23T05:48:35.294Z,99014.66
2022-09-23T05:50:37.407Z,99007.50
2022-09-23T05:52:39.587Z,99009.22
2022-09-23T05:54:41.853Z,98994.53
2022-09-23T05:56:46.857Z,99004.81
2022-09-23T05:58:50.694Z,98997.97
2022-09-23T06:00:53.289Z,98995.25
2022-09-23T06:02:55.566Z,98987.00
2022-09-23T06:04:57.999Z,98990.78
2022-09-23T06:07:03.356Z,98994.25
2022-09-23T06:09:08.376Z,99006.00
2022-09-23T06:11:12.179Z,98995.44
2022-09-23T06:13:16.147Z,99012.91
2022-09-23T06:15:18.480Z,99002.56
2022-09-23T06:17:20.722Z,98991.59
2022-09-23T06:19:23.073Z,98997.72
2022-09-23T06:21:25.272Z,98984.91
2022-09-23T06:23:27.658Z,98983.78
2022-09-23T06:25:30.525Z,98991.03
2022-09-23T06:28:00.274Z,99009.84
2022-09-23T06:30:02.688Z,99008.22
2022-09-23T06:32:06.088Z,99019.13
2022-09-23T06:34:13.684Z,99023.16
2022-09-23T06:36:30.822Z,98995.78
2022-09-23T06:38:40.408Z,98998.84
2022-09-23T06:40:42.644Z,98987.22
2022-09-23T06:45:06.111Z,98997.94
2022-09-23T06:47:08.420Z,98980.84
2022-09-23T06:49:13.128Z,98981.84
2022-09-23T06:51:21.822Z,98982.16
2022-09-23T06:53:24.161Z,99000.78
2022-09-23T06:55:28.179Z,99010.84
2022-09-23T06:57:51.288Z,98971.41
2022-09-23T06:59:53.402Z,98953.59
2022-09-23T07:02:02.138Z,98995.97
2022-09-23T07:04:04.494Z,98967.09
2022-09-23T07:06:09.485Z,98993.09
2022-09-23T07:08:14.950Z,98985.72
2022-09-23T07:10:17.255Z,98981.53
2022-09-23T07:12:19.251Z,98991.38
2022-09-23T07:14:24.192Z,98988.28
2022-09-23T07:16:28.960Z,99000.69
2022-09-23T07:18:36.680Z,99004.94
2022-09-23T07:20:41.752Z,98993.91
2022-09-23T07:23:18.028Z,98996.81
2022-09-23T07:25:26.311Z,98989.59
2022-09-23T07:27:34.100Z,99007.94
2022-09-23T07:29:49.599Z,98980.91
2022-09-23T07:31:52.209Z,98970.75
2022-09-23T07:33:57.598Z,98981.69
2022-09-23T07:36:00.191Z,98971.84
2022-09-23T07:38:02.578Z,98981.00
2022-09-23T07:40:05.412Z,98978.47
2022-09-23T07:42:08.030Z,98983.00
2022-09-23T07:44:13.928Z,98982.53
2022-09-23T07:46:56.312Z,98992.69
2022-09-23T07:49:01.368Z,98975.81
2022-09-23T07:51:34.718Z,98980.63
2022-09-23T07:53:56.875Z,98973.66
2022-09-23T07:56:05.681Z,98962.13
2022-09-23T07:58:09.054Z,98971.34
2022-09-23T08:00:30.453Z,98965.03
2022-09-23T08:02:32.566Z,98978.84
2022-09-23T08:04:36.177Z,98972.63
2022-09-23T08:06:46.504Z,98962.25
2022-09-23T08:08:53.332Z,98984.88
2022-09-23T08:11:04.659Z,98965.97
2022-09-23T08:13:07.008Z,98965.72
2022-09-23T08:15:09.197Z,98972.09
2022-09-23T08:19:32.120Z,98951.59
2022-09-23T08:21:39.311Z,98968.47
2022-09-23T08:23:41.699Z,98953.16
2022-09-23T08:25:46.943Z,98953.19
2022-09-23T08:27:50.756Z,98960.50
2022-09-23T08:29:52.920Z,98956.59
2022-09-23T08:31:55.849Z,98942.31
2022-09-23T08:34:00.134Z,98956.69
2022-09-23T08:36:03.747Z,98959.25
2022-09-23T08:38:06.527Z,98953.66
2022-09-23T08:40:09.716Z,98961.47
2022-09-23T08:42:31.953Z,98960.31
2022-09-23T08:44:55.321Z,98967.69
2022-09-23T08:47:00.420Z,98969.16
2022-09-23T08:49:02.834Z,98977.84
2022-09-23T08:51:08.499Z,98988.16
2022-09-23T08:53:32.895Z,98988.44
2022-09-23T08:55:42.205Z,98984.50
2022-09-23T08:58:23.504Z,98995.56
2022-09-23T09:00:23.852Z,98987.00
2022-09-23T09:02:31.508Z,98983.59
2022-09-23T09:04:37.929Z,98991.25
2022-09-23T09:06:53.567Z,99003.00
2022-09-23T09:09:01.044Z,98983.69
2022-09-23T09:11:04.034Z,98969.38
2022-09-23T09:13:12.471Z,98973.47
2022-09-23T09:15:26.864Z,98951.00
2022-09-23T09:17:45.991Z,98953.53
2022-09-23T09:20:16.943Z,98952.69
2022-09-23T09:22:48.539Z,98945.94
2022-09-23T09:24:56.608Z,98950.75
2022-09-23T09:27:11.959Z,98936.03
2022-09-23T09:29:39.317Z,98923.44
2022-09-23T09:31:47.899Z,98927.69
2022-09-23T09:34:06.442Z,98917.97
2022-09-23T09:36:20.999Z,98942.38
2022-09-23T09:38:23.623Z,98955.47
2022-09-23T09:40:25.826Z,98939.53
2022-09-23T09:42:37.297Z,98961.50
2022-09-23T09:44:42.359Z,98948.06
2022-09-23T09:47:09.159Z,98957.00
2022-09-23T09:49:23.446Z,98953.06
2022-09-23T09:51:29.815Z,98937.00
2022-09-23T09:53:35.936Z,98955.56
2022-09-23T09:55:38.696Z,98939.59
2022-09-23T09:57:55.167Z,98959.91
2022-09-23T09:59:58.963Z,98956.69
2022-09-23T10:02:37.047Z,98952.56
2022-09-23T10:04:39.825Z,98940.50
2022-09-23T10:06:42.079Z,98923.94
2022-09-23T10:08:50.349Z,98961.63
2022-09-23T10:10:58.766Z,98962.69
2022-09-23T10:13:16.214Z,98955.50
2022-09-23T10:15:27.517Z,98945.69
2022-09-23T10:17:38.835Z,98925.88
2022-09-23T10:19:47.132Z,98935.88
2022-09-23T10:22:00.144Z,98933.84
2022-09-23T10:24:05.817Z,98934.94
2022-09-23T10:26:09.060Z,98943.63
2022-09-23T10:28:41.306Z,98951.06
2022-09-23T10:31:05.483Z,98946.69
2022-09-23T10:33:27.968Z,98921.06
2022-09-23T10:35:34.528Z,98928.28
2022-09-23T10:37:42.241Z,98929.84
2022-09-23T10:40:06.516Z,98924.91
2022-09-23T10:42:46.883Z,98911.28
2022-09-23T10:45:20.053Z,98912.44
2022-09-23T10:47:35.099Z,98902.59
2022-09-23T10:49:44.017Z,98909.69
2022-09-23T10:51:49.140Z,98918.53
2022-09-23T10:54:02.802Z,98906.31
2022-09-23T10:56:11.129Z,98903.78
2022-09-23T10:58:13.157Z,98903.41
2022-09-23T11:00:15.313Z,98908.47
2022-09-23T11:02:21.399Z,98908.47
2022-09-23T11:04:52.933Z,98888.44
2022-09-23T11:07:07.448Z,98893.00
2022-09-23T11:09:28.266Z,98895.28
2022-09-23T11:11:58.757Z,98875.19
2022-09-23T11:14:04.812Z,98876.41
2022-09-23T11:16:43.276Z,98882.63
2022-09-23T11:18:59.870Z,98884.22
2022-09-23T11:21:26.662Z,98888.78
2022-09-23T11:24:06.362Z,98883.75
2022-09-23T11:26:19.823Z,98879.00
2022-09-23T11:28:37.168Z,98879.59
2022-09-23T11:31:17.465Z,98881.41
2022-09-23T11:33:37.894Z,98867.94
2022-09-23T11:35:50.500Z,98876.59
2022-09-23T11:38:00.881Z,98872.06
2022-09-23T11:40:12.455Z,98873.44
2022-09-23T11:42:21.632Z,98868.72
2022-09-23T11:44:28.699Z,98857.13
2022-09-23T11:46:35.993Z,98865.13
2022-09-23T11:48:44.858Z,98874.16
2022-09-23T11:50:57.509Z,98867.22
2022-09-23T11:53:31.768Z,98888.53
2022-09-23T11:55:54.655Z,98894.38
2022-09-23T11:58:13.002Z,98900.31
2022-09-23T12:00:24.355Z,98882.19
2022-09-23T12:02:59.595Z,98864.53
2022-09-23T12:05:14.131Z,98862.00
2022-09-23T12:07:28.795Z,98868.81
2022-09-23T12:10:04.108Z,98889.94
2022-09-23T12:12:29.499Z,98904.91
2022-09-23T12:14:49.978Z,98892.97
2022-09-23T12:17:15.052Z,98904.00
2022-09-23T12:19:18.999Z,98901.53
2022-09-23T12:21:48.649Z,98889.13
2022-09-23T12:24:20.455Z,98885.66
2022-09-23T12:26:25.668Z,98876.31
2022-09-23T12:28:37.867Z,98885.94
2022-09-23T12:30:42.350Z,98879.16
2022-09-23T12:32:45.412Z,98871.34
2022-09-23T12:34:54.679Z,98867.44
2022-09-23T12:37:06.339Z,98876.19
2022-09-23T12:39:15.568Z,98852.44
2022-09-23T12:41:24.160Z,98861.28
2022-09-23T12:43:35.708Z,98851.59
2022-09-23T12:45:51.022Z,98845.03
2022-09-23T12:47:54.048Z,98849.81
2022-09-23T12:50:13.316Z,98852.22
2022-09-23T12:52:19.697Z,98848.72
2022-09-23T12:54:28.321Z,98847.56
2022-09-23T12:56:36.627Z,98833.97
2022-09-23T12:58:57.107Z,98838.06
2022-09-23T13:01:19.910Z,98836.41
2022-09-23T13:03:49.526Z,98828.06
2022-09-23T13:06:17.302Z,98819.31
2022-09-23T13:08:25.046Z,98818.06
2022-09-23T13:10:29.780Z,98831.56
2022-09-23T13:12:40.489Z,98823.44
2022-09-23T13:14:46.185Z,98822.56
2022-09-23T13:16:52.362Z,98827.00
2022-09-23T13:19:02.817Z,98831.22
2022-09-23T13:21:17.983Z,98831.94
2022-09-23T13:23:26.627Z,98836.47
2022-09-23T13:25:33.571Z,98841.28
2022-09-23T13:27:36.497Z,98824.72
2022-09-23T13:30:19.365Z,98834.50
2022-09-23T13:32:32.024Z,98818.91
2022-09-23T13:34:36.264Z,98821.59
2022-09-23T13:36:49.504Z,98824.63
2022-09-23T13:38:51.940Z,98807.97
2022-09-23T13:40:57.154Z,98834.72
2022-09-23T13:43:03.345Z,98819.75
2022-09-23T13:45:06.892Z,98798.91
2022-09-23T13:47:18.198Z,98816.66
2022-09-23T13:49:25.240Z,98818.56
2022-09-23T13:51:33.275Z,98797.16
2022-09-23T13:53:35.485Z,98811.06
2022-09-23T13:55:39.289Z,98813.69
2022-09-23T13:57:43.341Z,98821.66
2022-09-23T13:59:45.563Z,98815.53
2022-09-23T14:01:47.837Z,98814.19
2022-09-23T14:03:51.571Z,98808.19
2022-09-23T14:06:05.052Z,98811.09
2022-09-23T14:08:08.189Z,98809.22
2022-09-23T14:10:19.198Z,98805.59
2022-09-23T14:12:26.384Z,98795.06
2022-09-23T14:14:33.782Z,98806.94
2022-09-23T14:16:39.734Z,98748.53
2022-09-23T14:18:47.273Z,98793.56
2022-09-23T14:20:51.856Z,98784.00
2022-09-23T14:23:04.804Z,98787.50
2022-09-23T14:25:16.815Z,98783.03
2022-09-23T14:27:28.606Z,98771.88
2022-09-23T14:29:33.872Z,98785.97
2022-09-23T14:31:36.105Z,98785.66
2022-09-23T14:33:41.820Z,98790.75
2022-09-23T14:35:51.579Z,98793.47
2022-09-23T14:38:16.334Z,98778.75
2022-09-23T14:40:20.681Z,98752.09
2022-09-23T14:44:42.413Z,98781.09
2022-09-23T14:46:56.975Z,98777.59
2022-09-23T14:48:59.055Z,98785.78
2022-09-23T14:51:04.025Z,98787.66
2022-09-23T14:53:24.230Z,98775.25
2022-09-23T14:55:29.051Z,98775.59
2022-09-23T14:57:32.087Z,98768.53
2022-09-23T14:59:36.705Z,98750.59
2022-09-23T15:01:39.383Z,98758.44
2022-09-23T15:03:50.096Z,98745.50
2022-09-23T15:05:58.445Z,98754.91
2022-09-23T15:08:12.118Z,98755.94
2022-09-23T15:10:27.145Z,98757.69
2022-09-23T15:12:30.498Z,98752.66
2022-09-23T15:14:42.310Z,98764.09
2022-09-23T15:16:49.582Z,98769.94
2022-09-23T15:18:57.852Z,98766.34
2022-09-23T15:21:31.676Z,98755.13
2022-09-23T15:24:15.813Z,98768.91
2022-09-23T15:26:48.323Z,98720.66
2022-09-23T15:28:56.308Z,98753.34
2022-09-23T15:30:58.622Z,98738.03
2022-09-23T15:33:00.675Z,98768.09
2022-09-23T15:35:02.917Z,98757.78
2022-09-23T15:37:08.266Z,98761.22
2022-09-23T15:39:12.381Z,98756.28
2022-09-23T15:41:18.070Z,98769.47
2022-09-23T15:43:32.723Z,98764.53
2022-09-23T15:45:40.375Z,98759.28
2022-09-23T15:47:43.201Z,98754.19
2022-09-23T15:49:52.066Z,98740.69
2022-09-23T15:52:15.491Z,98758.13
2022-09-23T15:56:38.202Z,98747.91
2022-09-23T15:58:58.673Z,98752.97
2022-09-23T16:01:01.851Z,98767.59
2022-09-23T16:03:06.767Z,98769.50
2022-09-23T16:05:18.613Z,98760.19
2022-09-23T16:07:21.282Z,98757.88
2022-09-23T16:09:56.560Z,98759.47
2022-09-23T16:12:09.481Z,98758.69
2022-09-23T16:14:30.012Z,98753.63
2022-09-23T16:16:32.963Z,98749.19
2022-09-23T16:18:39.411Z,98755.56
2022-09-23T16:20:56.566Z,98754.19
2022-09-23T16:23:05.323Z,98760.03
2022-09-23T16:25:31.509Z,98756.94
2022-09-23T16:27:34.211Z,98749.84
2022-09-23T16:29:37.011Z,98745.56
2022-09-23T16:31:39.566Z,98753.31
2022-09-23T16:33:43.283Z,98743.84
2022-09-23T16:35:45.813Z,98739.28
2022-09-23T16:37:48.113Z,98747.91
2022-09-23T16:39:50.413Z,98747.00
2022-09-23T16:42:13.608Z,98743.50
2022-09-23T16:44:19.505Z,98742.66
2022-09-23T16:46:22.772Z,98713.97
2022-09-23T16:48:30.957Z,98726.00
2022-09-23T16:50:42.803Z,98725.09
2022-09-23T16:52:56.916Z,98719.09
2022-09-23T16:54:59.265Z,98720.13
2022-09-23T16:57:02.069Z,98717.53
2022-09-23T16:59:04.285Z,98724.69
2022-09-23T17:01:38.358Z,98699.84
2022-09-23T17:03:41.046Z,98710.94
2022-09-23T17:05:46.582Z,98704.91
2022-09-23T17:07:49.125Z,98706.69
2022-09-23T17:09:51.402Z,98712.66
2022-09-23T17:11:58.844Z,98720.53
2022-09-23T17:14:01.089Z,98708.66
2022-09-23T17:16:03.463Z,98725.34
2022-09-23T17:18:08.165Z,98708.75
2022-09-23T17:20:10.319Z,98695.88
2022-09-23T17:22:12.532Z,98713.81
2022-09-23T17:24:15.115Z,98702.50
2022-09-23T17:26:19.219Z,98688.50
2022-09-23T17:28:26.134Z,98689.34
2022-09-23T17:30:29.983Z,98695.28
2022-09-23T17:32:32.093Z,98693.59
2022-09-23T17:36:37.039Z,98690.00
2022-09-23T17:38:41.771Z,98682.09
2022-09-23T17:40:55.251Z,98692.31
2022-09-23T17:42:57.361Z,98690.50
2022-09-23T17:44:59.663Z,98681.69
2022-09-23T17:47:04.994Z,98663.41
2022-09-23T17:49:08.565Z,98684.03
2022-09-23T17:51:17.023Z,98668.75
2022-09-23T17:53:20.431Z,98691.44
2022-09-23T17:55:22.647Z,98681.13
2022-09-23T17:57:24.836Z,98689.41
2022-09-23T17:59:27.003Z,98679.28
2022-09-23T18:01:29.350Z,98678.47
2022-09-23T18:03:33.638Z,98683.72
2022-09-23T18:05:35.747Z,98679.41
2022-09-23T18:07:37.811Z,98679.31
2022-09-23T18:09:50.337Z,98672.44
2022-09-23T18:11:52.601Z,98675.81
2022-09-23T18:13:59.701Z,98673.00
2022-09-23T18:16:03.023Z,98666.88
2022-09-23T18:18:06.223Z,98664.97
2022-09-23T18:20:14.565Z,98657.13
2022-09-23T18:22:16.977Z,98636.19
2022-09-23T18:24:35.765Z,98652.53
2022-09-23T18:26:38.620Z,98648.28
2022-09-23T18:28:41.013Z,98642.13
2022-09-23T18:30:55.095Z,98635.25
2022-09-23T18:32:58.455Z,98647.38
2022-09-23T18:35:00.646Z,98640.34
2022-09-23T18:37:02.871Z,98649.03
2022-09-23T18:39:05.846Z,98643.84
2022-09-23T18:41:09.482Z,98631.09
2022-09-23T18:43:11.723Z,98635.44
2022-09-23T18:45:17.075Z,98627.25
2022-09-23T18:47:39.093Z,98634.94
2022-09-23T18:49:59.842Z,98642.56
2022-09-23T18:52:02.359Z,98629.56
2022-09-23T18:54:07.194Z,98634.63
2022-09-23T18:56:12.133Z,98612.13
2022-09-23T18:58:14.518Z,98624.09
2022-09-23T19:00:16.857Z,98629.97
2022-09-23T19:02:19.143Z,98632.38
2022-09-23T19:04:23.498Z,98636.72
2022-09-23T19:06:26.105Z,98629.28
2022-09-23T19:08:28.676Z,98631.41
2022-09-23T19:10:30.896Z,98626.13
2022-09-23T19:12:33.131Z,98609.50
2022-09-23T19:14:35.271Z,98618.13
2022-09-23T19:16:37.955Z,98604.13
2022-09-23T19:18:42.082Z,98606.75
2022-09-23T19:20:52.111Z,98606.59
2022-09-23T19:22:54.722Z,98616.84
2022-09-23T19:24:56.863Z,98608.38
2022-09-23T19:26:59.123Z,98614.53
2022-09-23T19:29:05.606Z,98607.69
2022-09-23T19:31:12.625Z,98620.59
2022-09-23T19:33:17.918Z,98612.94
2022-09-23T19:35:20.144Z,98599.06
2022-09-23T19:37:22.672Z,98597.38
2022-09-23T19:39:31.350Z,98600.47
2022-09-23T19:41:35.633Z,98582.22
2022-09-23T19:43:41.018Z,98549.38
2022-09-23T19:45:44.591Z,98590.56
2022-09-23T19:48:09.862Z,98581.81
2022-09-23T19:50:30.448Z,98586.91
2022-09-23T19:52:32.517Z,98564.50
2022-09-23T19:54:40.260Z,98569.56
2022-09-23T19:56:42.410Z,98576.53
2022-09-23T19:58:45.563Z,98572.38
2022-09-23T20:00:49.450Z,98572.50
2022-09-23T20:02:51.737Z,98561.31
2022-09-23T20:04:56.916Z,98550.16
2022-09-23T20:07:01.532Z,98552.59
2022-09-23T20:09:04.062Z,98552.50
2022-09-23T20:11:27.583Z,98548.09
2022-09-23T20:13:31.542Z,98524.97
2022-09-23T20:15:33.709Z,98530.94
2022-09-23T20:17:36.112Z,98530.84
2022-09-23T20:19:41.483Z,98537.81
2022-09-23T20:22:12.614Z,98530.06
2022-09-23T20:24:17.068Z,98523.16
2022-09-23T20:26:37.539Z,98536.13
2022-09-23T20:28:39.595Z,98514.47
2022-09-23T20:30:43.977Z,98520.63
2022-09-23T20:32:49.406Z,98524.25
2022-09-23T20:34:57.250Z,98507.88
2022-09-23T20:37:02.029Z,98512.19
2022-09-23T20:41:31.518Z,98508.63
2022-09-23T20:43:37.841Z,98505.16
2022-09-23T20:45:40.072Z,98487.09
2022-09-23T20:47:42.121Z,98489.66
2022-09-23T20:49:50.138Z,98481.75
2022-09-23T20:51:52.198Z,98501.63
2022-09-23T20:53:54.369Z,98486.06
2022-09-23T20:55:58.390Z,98488.75
2022-09-23T20:58:04.001Z,98480.94
2022-09-23T21:00:09.444Z,98475.72
2022-09-23T21:02:11.805Z,98460.19
2022-09-23T21:04:13.927Z,98462.72
2022-09-23T21:06:19.089Z,98475.59
2022-09-23T21:08:21.600Z,98461.13
2022-09-23T21:10:24.441Z,98459.41
2022-09-23T21:12:26.470Z,98476.69
2022-09-23T21:14:28.641Z,98475.72
2022-09-23T21:16:31.061Z,98471.34
2022-09-23T21:18:33.174Z,98460.03
2022-09-23T21:20:35.309Z,98456.47
2022-09-23T21:22:37.487Z,98454.78
2022-09-23T21:25:16.136Z,98451.41
2022-09-23T21:27:04.138Z,98452.16
2022-09-23T21:29:07.010Z,98448.66
2022-09-23T21:31:22.879Z,98434.84
2022-09-23T21:33:25.364Z,98431.34
2022-09-23T21:35:27.447Z,98439.81
2022-09-23T21:37:29.619Z,98426.81
2022-09-23T21:40:26.267Z,98431.16
2022-09-23T21:42:29.432Z,98417.50
2022-09-23T21:44:33.630Z,98400.38
2022-09-23T21:46:36.532Z,98419.19
2022-09-23T21:48:41.483Z,98419.19
2022-09-23T21:51:15.839Z,98432.97
2022-09-23T21:53:18.576Z,98427.78
2022-09-23T21:55:41.496Z,98426.06
2022-09-23T21:57:44.328Z,98408.88
2022-09-23T21:59:57.038Z,98413.97
2022-09-23T22:02:00.101Z,98414.13
2022-09-23T22:04:08.531Z,98403.03
2022-09-23T22:06:27.946Z,98410.84
2022-09-23T22:08:34.923Z,98399.78
2022-09-23T22:10:37.749Z,98386.72
2022-09-23T22:12:39.928Z,98381.56
2022-09-23T22:14:42.966Z,98380.72
2022-09-23T22:16:45.523Z,98385.00
2022-09-23T22:18:51.818Z,98361.06
2022-09-23T22:20:56.406Z,98379.75
2022-09-23T22:22:58.528Z,98366.84
2022-09-23T22:25:00.719Z,98383.22
2022-09-23T22:27:02.728Z,98371.94
2022-09-23T22:29:27.088Z,98342.00
2022-09-23T22:31:47.857Z,98357.50
2022-09-23T22:33:50.683Z,98363.63
2022-09-23T22:36:01.465Z,98353.97
2022-09-23T22:38:04.794Z,98340.28
2022-09-23T22:40:10.698Z,98351.34
2022-09-23T22:42:13.448Z,98335.88
2022-09-23T22:44:21.600Z,98333.38
2022-09-23T22:46:34.819Z,98336.78
2022-09-23T22:49:08.406Z,98338.56
2022-09-23T22:51:17.216Z,98344.78
2022-09-23T22:53:19.356Z,98324.06
2022-09-23T22:55:33.715Z,98330.06
2022-09-23T22:57:36.785Z,98318.91
2022-09-23T23:00:00.485Z,98326.47
2022-09-23T23:04:50.555Z,98316.28
2022-09-23T23:06:52.617Z,98307.63
2022-09-23T23:08:58.756Z,98325.72
2022-09-23T23:11:10.931Z,98305.69
2022-09-23T23:13:16.533Z,98298.69
2022-09-23T23:15:21.294Z,98289.09
2022-09-23T23:17:23.476Z,98295.22
2022-09-23T23:19:26.107Z,98286.66
2022-09-23T23:21:28.504Z,98278.91
2022-09-23T23:23:30.392Z,98289.16
2022-09-23T23:25:32.562Z,98264.38
2022-09-23T23:27:34.864Z,98287.47
2022-09-23T23:29:36.985Z,98278.88
2022-09-23T23:31:39.437Z,98276.09
2022-09-23T23:33:42.368Z,98279.50
2022-09-23T23:35:50.774Z,98266.50
2022-09-23T23:37:52.854Z,98245.00
2022-09-23T23:39:55.051Z,98257.84
2022-09-23T23:42:15.961Z,98258.03
2022-09-23T23:44:18.252Z,98250.44
2022-09-23T23:46:21.463Z,98231.41
2022-09-23T23:48:29.678Z,98240.06
2022-09-23T23:50:53.762Z,98243.53
2022-09-23T23:53:01.707Z,98224.63
2022-09-23T23:55:07.237Z,98223.69
2022-09-23T23:57:24.787Z,98226.09
2022-09-23T23:59:28.476Z,98208.91
